sensor_id;sensor_type;location;lat;lon;timestamp;P1;durP1;ratioP1;P2;durP2;ratioP2
71475;SDS011;59286;59.274;17.974;2023-05-07T00:01:47;3.28;;;2.20;;
71475;SDS011;59286;59.274;17.974;2023-05-07T00:04:13;5.25;;;2.40;;
71475;SDS011;59286;59.274;17.974;2023-05-07T00:06:38;4.60;;;2.88;;
71475;SDS011;59286;59.274;17.974;2023-05-07T00:09:04;6.72;;;3.10;;
71475;SDS011;59286;59.274;17.974;2023-05-07T00:11:30;9.77;;;3.08;;
71475;SDS011;59286;59.274;17.974;2023-05-07T00:13:56;3.20;;;2.70;;
71475;SDS011;59286;59.274;17.974;2023-05-07T00:16:21;3.35;;;2.42;;
71475;SDS011;59286;59.274;17.974;2023-05-07T00:18:47;9.73;;;3.03;;
71475;SDS011;59286;59.274;17.974;2023-05-07T00:21:12;4.38;;;2.70;;
71475;SDS011;59286;59.274;17.974;2023-05-07T00:23:38;5.20;;;2.83;;
71475;SDS011;59286;59.274;17.974;2023-05-07T00:26:03;5.85;;;3.00;;
71475;SDS011;59286;59.274;17.974;2023-05-07T00:28:29;5.72;;;3.13;;
71475;SDS011;59286;59.274;17.974;2023-05-07T00:30:55;4.07;;;2.90;;
71475;SDS011;59286;59.274;17.974;2023-05-07T00:33:20;8.18;;;3.38;;
71475;SDS011;59286;59.274;17.974;2023-05-07T00:35:46;8.05;;;3.17;;
71475;SDS011;59286;59.274;17.974;2023-05-07T00:38:12;6.45;;;3.28;;
71475;SDS011;59286;59.274;17.974;2023-05-07T00:40:37;5.45;;;3.20;;
71475;SDS011;59286;59.274;17.974;2023-05-07T00:43:02;4.55;;;3.10;;
71475;SDS011;59286;59.274;17.974;2023-05-07T00:45:28;5.25;;;3.13;;
71475;SDS011;59286;59.274;17.974;2023-05-07T00:47:58;5.03;;;2.83;;
71475;SDS011;59286;59.274;17.974;2023-05-07T00:50:25;4.03;;;3.08;;
71475;SDS011;59286;59.274;17.974;2023-05-07T00:52:52;4.20;;;3.10;;
71475;SDS011;59286;59.274;17.974;2023-05-07T00:55:18;5.28;;;3.30;;
71475;SDS011;59286;59.274;17.974;2023-05-07T00:57:43;5.03;;;3.58;;
71475;SDS011;59286;59.274;17.974;2023-05-07T01:00:10;4.05;;;3.65;;
71475;SDS011;59286;59.274;17.974;2023-05-07T01:02:40;4.50;;;3.20;;
71475;SDS011;59286;59.274;17.974;2023-05-07T01:05:07;8.25;;;3.67;;
71475;SDS011;59286;59.274;17.974;2023-05-07T01:07:34;7.07;;;3.80;;
71475;SDS011;59286;59.274;17.974;2023-05-07T01:10:00;4.60;;;3.60;;
71475;SDS011;59286;59.274;17.974;2023-05-07T01:12:26;10.38;;;3.78;;
71475;SDS011;59286;59.274;17.974;2023-05-07T01:14:52;4.63;;;3.72;;
71475;SDS011;59286;59.274;17.974;2023-05-07T01:17:18;6.47;;;3.80;;
71475;SDS011;59286;59.274;17.974;2023-05-07T01:19:44;8.13;;;3.70;;
71475;SDS011;59286;59.274;17.974;2023-05-07T01:22:10;4.45;;;3.63;;
71475;SDS011;59286;59.274;17.974;2023-05-07T01:24:36;7.60;;;3.80;;
71475;SDS011;59286;59.274;17.974;2023-05-07T01:27:03;6.10;;;3.63;;
71475;SDS011;59286;59.274;17.974;2023-05-07T01:29:29;5.95;;;3.92;;
71475;SDS011;59286;59.274;17.974;2023-05-07T01:31:56;7.05;;;3.85;;
71475;SDS011;59286;59.274;17.974;2023-05-07T01:34:24;8.02;;;4.05;;
71475;SDS011;59286;59.274;17.974;2023-05-07T01:36:52;4.07;;;3.58;;
71475;SDS011;59286;59.274;17.974;2023-05-07T01:39:21;9.40;;;4.57;;
71475;SDS011;59286;59.274;17.974;2023-05-07T01:41:48;8.07;;;4.10;;
71475;SDS011;59286;59.274;17.974;2023-05-07T01:44:14;6.00;;;3.80;;
71475;SDS011;59286;59.274;17.974;2023-05-07T01:46:40;6.75;;;4.32;;
71475;SDS011;59286;59.274;17.974;2023-05-07T01:49:05;6.65;;;3.90;;
71475;SDS011;59286;59.274;17.974;2023-05-07T01:51:31;5.55;;;3.92;;
71475;SDS011;59286;59.274;17.974;2023-05-07T01:53:57;6.00;;;4.05;;
71475;SDS011;59286;59.274;17.974;2023-05-07T01:56:23;4.97;;;3.85;;
71475;SDS011;59286;59.274;17.974;2023-05-07T01:58:49;8.25;;;3.53;;
71475;SDS011;59286;59.274;17.974;2023-05-07T02:01:16;7.15;;;4.07;;
71475;SDS011;59286;59.274;17.974;2023-05-07T02:03:41;5.50;;;3.80;;
71475;SDS011;59286;59.274;17.974;2023-05-07T02:06:07;7.32;;;4.00;;
71475;SDS011;59286;59.274;17.974;2023-05-07T02:08:32;8.10;;;4.05;;
71475;SDS011;59286;59.274;17.974;2023-05-07T02:10:57;4.75;;;3.80;;
71475;SDS011;59286;59.274;17.974;2023-05-07T02:13:23;5.03;;;3.63;;
71475;SDS011;59286;59.274;17.974;2023-05-07T02:15:49;4.75;;;3.92;;
71475;SDS011;59286;59.274;17.974;2023-05-07T02:18:15;8.80;;;4.00;;
71475;SDS011;59286;59.274;17.974;2023-05-07T02:20:41;7.07;;;4.68;;
71475;SDS011;59286;59.274;17.974;2023-05-07T02:23:07;9.00;;;3.80;;
71475;SDS011;59286;59.274;17.974;2023-05-07T02:25:33;5.82;;;4.05;;
71475;SDS011;59286;59.274;17.974;2023-05-07T02:27:58;5.88;;;4.18;;
71475;SDS011;59286;59.274;17.974;2023-05-07T02:30:24;7.30;;;3.90;;
71475;SDS011;59286;59.274;17.974;2023-05-07T02:32:50;9.07;;;3.78;;
71475;SDS011;59286;59.274;17.974;2023-05-07T02:35:15;6.13;;;3.83;;
71475;SDS011;59286;59.274;17.974;2023-05-07T02:37:40;5.45;;;4.10;;
71475;SDS011;59286;59.274;17.974;2023-05-07T02:40:06;7.70;;;3.88;;
71475;SDS011;59286;59.274;17.974;2023-05-07T02:42:32;5.70;;;3.90;;
71475;SDS011;59286;59.274;17.974;2023-05-07T02:44:57;5.68;;;3.72;;
71475;SDS011;59286;59.274;17.974;2023-05-07T02:47:23;4.13;;;3.22;;
71475;SDS011;59286;59.274;17.974;2023-05-07T02:49:48;5.70;;;3.78;;
71475;SDS011;59286;59.274;17.974;2023-05-07T02:52:13;8.15;;;4.03;;
71475;SDS011;59286;59.274;17.974;2023-05-07T02:54:39;5.45;;;3.80;;
71475;SDS011;59286;59.274;17.974;2023-05-07T02:57:04;5.57;;;4.07;;
71475;SDS011;59286;59.274;17.974;2023-05-07T02:59:30;5.70;;;3.78;;
71475;SDS011;59286;59.274;17.974;2023-05-07T03:01:55;11.48;;;4.32;;
71475;SDS011;59286;59.274;17.974;2023-05-07T03:04:20;6.03;;;3.70;;
71475;SDS011;59286;59.274;17.974;2023-05-07T03:06:46;8.68;;;3.92;;
71475;SDS011;59286;59.274;17.974;2023-05-07T03:09:11;9.00;;;3.83;;
71475;SDS011;59286;59.274;17.974;2023-05-07T03:11:37;7.75;;;3.53;;
71475;SDS011;59286;59.274;17.974;2023-05-07T03:14:02;4.82;;;3.78;;
71475;SDS011;59286;59.274;17.974;2023-05-07T03:16:27;6.15;;;3.33;;
71475;SDS011;59286;59.274;17.974;2023-05-07T03:18:53;5.30;;;3.20;;
71475;SDS011;59286;59.274;17.974;2023-05-07T03:21:18;5.78;;;3.85;;
71475;SDS011;59286;59.274;17.974;2023-05-07T03:23:44;4.95;;;3.33;;
71475;SDS011;59286;59.274;17.974;2023-05-07T03:26:09;8.20;;;3.53;;
71475;SDS011;59286;59.274;17.974;2023-05-07T03:28:35;5.22;;;3.30;;
71475;SDS011;59286;59.274;17.974;2023-05-07T03:31:00;5.03;;;3.40;;
71475;SDS011;59286;59.274;17.974;2023-05-07T03:33:26;5.32;;;3.63;;
71475;SDS011;59286;59.274;17.974;2023-05-07T03:35:52;4.60;;;3.80;;
71475;SDS011;59286;59.274;17.974;2023-05-07T03:38:18;6.88;;;3.92;;
71475;SDS011;59286;59.274;17.974;2023-05-07T03:40:43;4.05;;;3.30;;
71475;SDS011;59286;59.274;17.974;2023-05-07T03:43:08;5.93;;;3.38;;
71475;SDS011;59286;59.274;17.974;2023-05-07T03:45:34;4.93;;;3.78;;
71475;SDS011;59286;59.274;17.974;2023-05-07T03:48:00;5.95;;;3.83;;
71475;SDS011;59286;59.274;17.974;2023-05-07T03:50:26;6.32;;;3.70;;
71475;SDS011;59286;59.274;17.974;2023-05-07T03:52:51;5.97;;;4.03;;
71475;SDS011;59286;59.274;17.974;2023-05-07T03:55:17;5.80;;;3.30;;
71475;SDS011;59286;59.274;17.974;2023-05-07T03:57:43;4.38;;;3.15;;
71475;SDS011;59286;59.274;17.974;2023-05-07T04:00:08;5.05;;;3.20;;
71475;SDS011;59286;59.274;17.974;2023-05-07T04:02:34;4.70;;;3.60;;
71475;SDS011;59286;59.274;17.974;2023-05-07T04:04:59;3.45;;;3.15;;
71475;SDS011;59286;59.274;17.974;2023-05-07T04:07:25;5.80;;;3.42;;
71475;SDS011;59286;59.274;17.974;2023-05-07T04:09:50;5.35;;;3.03;;
71475;SDS011;59286;59.274;17.974;2023-05-07T04:12:16;5.00;;;3.20;;
71475;SDS011;59286;59.274;17.974;2023-05-07T04:14:41;6.82;;;3.13;;
71475;SDS011;59286;59.274;17.974;2023-05-07T04:17:07;6.63;;;3.63;;
71475;SDS011;59286;59.274;17.974;2023-05-07T04:19:34;3.30;;;3.00;;
71475;SDS011;59286;59.274;17.974;2023-05-07T04:22:00;7.82;;;3.30;;
71475;SDS011;59286;59.274;17.974;2023-05-07T04:24:25;4.82;;;2.90;;
71475;SDS011;59286;59.274;17.974;2023-05-07T04:26:51;5.72;;;3.00;;
71475;SDS011;59286;59.274;17.974;2023-05-07T04:29:17;3.10;;;2.63;;
71475;SDS011;59286;59.274;17.974;2023-05-07T04:31:43;4.45;;;2.90;;
71475;SDS011;59286;59.274;17.974;2023-05-07T04:34:11;4.25;;;2.78;;
71475;SDS011;59286;59.274;17.974;2023-05-07T04:36:39;3.88;;;2.88;;
71475;SDS011;59286;59.274;17.974;2023-05-07T04:39:05;3.15;;;2.53;;
71475;SDS011;59286;59.274;17.974;2023-05-07T04:41:31;5.65;;;2.72;;
71475;SDS011;59286;59.274;17.974;2023-05-07T04:43:57;3.42;;;2.60;;
71475;SDS011;59286;59.274;17.974;2023-05-07T04:46:25;2.70;;;2.50;;
71475;SDS011;59286;59.274;17.974;2023-05-07T04:48:51;4.47;;;2.78;;
71475;SDS011;59286;59.274;17.974;2023-05-07T04:51:16;2.92;;;2.63;;
71475;SDS011;59286;59.274;17.974;2023-05-07T04:53:42;3.22;;;2.58;;
71475;SDS011;59286;59.274;17.974;2023-05-07T04:56:08;4.30;;;2.65;;
71475;SDS011;59286;59.274;17.974;2023-05-07T04:58:33;2.88;;;2.55;;
71475;SDS011;59286;59.274;17.974;2023-05-07T05:00:59;3.38;;;2.70;;
71475;SDS011;59286;59.274;17.974;2023-05-07T05:03:25;3.42;;;2.60;;
71475;SDS011;59286;59.274;17.974;2023-05-07T05:05:51;4.25;;;2.47;;
71475;SDS011;59286;59.274;17.974;2023-05-07T05:08:17;3.00;;;2.40;;
71475;SDS011;59286;59.274;17.974;2023-05-07T05:10:43;4.85;;;2.42;;
71475;SDS011;59286;59.274;17.974;2023-05-07T05:13:08;3.67;;;2.30;;
71475;SDS011;59286;59.274;17.974;2023-05-07T05:15:34;4.15;;;2.30;;
71475;SDS011;59286;59.274;17.974;2023-05-07T05:18:00;4.70;;;2.25;;
71475;SDS011;59286;59.274;17.974;2023-05-07T05:20:26;2.00;;;1.80;;
71475;SDS011;59286;59.274;17.974;2023-05-07T05:22:51;1.95;;;1.63;;
71475;SDS011;59286;59.274;17.974;2023-05-07T05:25:17;4.47;;;1.70;;
71475;SDS011;59286;59.274;17.974;2023-05-07T05:27:42;2.42;;;1.45;;
71475;SDS011;59286;59.274;17.974;2023-05-07T05:30:08;2.22;;;1.33;;
71475;SDS011;59286;59.274;17.974;2023-05-07T05:32:33;2.88;;;1.40;;
71475;SDS011;59286;59.274;17.974;2023-05-07T05:34:59;2.90;;;1.50;;
71475;SDS011;59286;59.274;17.974;2023-05-07T05:37:25;2.17;;;1.42;;
71475;SDS011;59286;59.274;17.974;2023-05-07T05:39:50;3.97;;;1.75;;
71475;SDS011;59286;59.274;17.974;2023-05-07T05:42:16;2.78;;;1.48;;
71475;SDS011;59286;59.274;17.974;2023-05-07T05:44:42;2.65;;;1.50;;
71475;SDS011;59286;59.274;17.974;2023-05-07T05:47:07;2.75;;;1.40;;
71475;SDS011;59286;59.274;17.974;2023-05-07T05:49:33;2.03;;;1.30;;
71475;SDS011;59286;59.274;17.974;2023-05-07T05:51:59;1.98;;;1.45;;
71475;SDS011;59286;59.274;17.974;2023-05-07T05:54:24;1.60;;;1.23;;
71475;SDS011;59286;59.274;17.974;2023-05-07T05:56:50;3.05;;;1.30;;
71475;SDS011;59286;59.274;17.974;2023-05-07T05:59:18;1.90;;;1.20;;
71475;SDS011;59286;59.274;17.974;2023-05-07T06:01:43;1.60;;;1.27;;
71475;SDS011;59286;59.274;17.974;2023-05-07T06:04:09;2.08;;;1.35;;
71475;SDS011;59286;59.274;17.974;2023-05-07T06:06:34;1.30;;;1.08;;
71475;SDS011;59286;59.274;17.974;2023-05-07T06:09:00;2.47;;;1.30;;
71475;SDS011;59286;59.274;17.974;2023-05-07T06:11:25;4.55;;;1.30;;
71475;SDS011;59286;59.274;17.974;2023-05-07T06:13:51;4.90;;;1.40;;
71475;SDS011;59286;59.274;17.974;2023-05-07T06:16:16;2.30;;;1.20;;
71475;SDS011;59286;59.274;17.974;2023-05-07T06:18:42;3.45;;;1.25;;
71475;SDS011;59286;59.274;17.974;2023-05-07T06:21:07;2.63;;;1.20;;
71475;SDS011;59286;59.274;17.974;2023-05-07T06:23:33;2.20;;;1.00;;
71475;SDS011;59286;59.274;17.974;2023-05-07T06:25:58;2.40;;;1.20;;
71475;SDS011;59286;59.274;17.974;2023-05-07T06:28:24;1.40;;;1.13;;
71475;SDS011;59286;59.274;17.974;2023-05-07T06:30:49;3.10;;;1.35;;
71475;SDS011;59286;59.274;17.974;2023-05-07T06:33:15;2.53;;;1.10;;
71475;SDS011;59286;59.274;17.974;2023-05-07T06:35:41;1.30;;;0.90;;
71475;SDS011;59286;59.274;17.974;2023-05-07T06:38:06;2.78;;;1.00;;
71475;SDS011;59286;59.274;17.974;2023-05-07T06:40:32;1.13;;;0.85;;
71475;SDS011;59286;59.274;17.974;2023-05-07T06:42:57;2.40;;;0.80;;
71475;SDS011;59286;59.274;17.974;2023-05-07T06:45:23;1.40;;;0.90;;
71475;SDS011;59286;59.274;17.974;2023-05-07T06:47:49;1.58;;;0.80;;
71475;SDS011;59286;59.274;17.974;2023-05-07T06:50:14;1.13;;;0.63;;
71475;SDS011;59286;59.274;17.974;2023-05-07T06:52:41;2.15;;;0.90;;
71475;SDS011;59286;59.274;17.974;2023-05-07T06:55:07;1.92;;;1.10;;
71475;SDS011;59286;59.274;17.974;2023-05-07T06:57:33;2.50;;;0.90;;
71475;SDS011;59286;59.274;17.974;2023-05-07T07:00:02;1.55;;;0.93;;
71475;SDS011;59286;59.274;17.974;2023-05-07T07:02:28;1.85;;;0.90;;
71475;SDS011;59286;59.274;17.974;2023-05-07T07:04:53;0.70;;;0.70;;
71475;SDS011;59286;59.274;17.974;2023-05-07T07:07:18;3.03;;;0.90;;
71475;SDS011;59286;59.274;17.974;2023-05-07T07:09:44;1.40;;;0.90;;
71475;SDS011;59286;59.274;17.974;2023-05-07T07:12:09;3.75;;;0.80;;
71475;SDS011;59286;59.274;17.974;2023-05-07T07:14:35;0.98;;;0.73;;
71475;SDS011;59286;59.274;17.974;2023-05-07T07:17:00;2.22;;;0.85;;
71475;SDS011;59286;59.274;17.974;2023-05-07T07:19:26;0.80;;;0.80;;
71475;SDS011;59286;59.274;17.974;2023-05-07T07:21:51;1.30;;;0.80;;
71475;SDS011;59286;59.274;17.974;2023-05-07T07:24:16;1.88;;;0.98;;
71475;SDS011;59286;59.274;17.974;2023-05-07T07:26:46;3.30;;;1.10;;
71475;SDS011;59286;59.274;17.974;2023-05-07T07:29:11;1.52;;;0.70;;
71475;SDS011;59286;59.274;17.974;2023-05-07T07:31:45;5.03;;;1.00;;
71475;SDS011;59286;59.274;17.974;2023-05-07T07:34:10;1.30;;;0.70;;
71475;SDS011;59286;59.274;17.974;2023-05-07T07:36:36;1.80;;;0.82;;
71475;SDS011;59286;59.274;17.974;2023-05-07T07:39:01;2.40;;;0.70;;
71475;SDS011;59286;59.274;17.974;2023-05-07T07:41:27;0.77;;;0.57;;
71475;SDS011;59286;59.274;17.974;2023-05-07T07:43:52;1.98;;;0.90;;
71475;SDS011;59286;59.274;17.974;2023-05-07T07:46:17;2.00;;;0.70;;
71475;SDS011;59286;59.274;17.974;2023-05-07T07:48:43;2.40;;;0.80;;
71475;SDS011;59286;59.274;17.974;2023-05-07T07:51:08;1.35;;;0.93;;
71475;SDS011;59286;59.274;17.974;2023-05-07T07:53:33;2.47;;;0.70;;
71475;SDS011;59286;59.274;17.974;2023-05-07T07:55:59;1.50;;;0.70;;
71475;SDS011;59286;59.274;17.974;2023-05-07T07:58:24;2.40;;;0.70;;
71475;SDS011;59286;59.274;17.974;2023-05-07T08:00:50;2.03;;;0.80;;
71475;SDS011;59286;59.274;17.974;2023-05-07T08:03:16;2.92;;;1.00;;
71475;SDS011;59286;59.274;17.974;2023-05-07T08:05:41;1.02;;;0.80;;
71475;SDS011;59286;59.274;17.974;2023-05-07T08:08:07;3.10;;;1.02;;
71475;SDS011;59286;59.274;17.974;2023-05-07T08:10:33;2.72;;;0.70;;
71475;SDS011;59286;59.274;17.974;2023-05-07T08:13:03;3.25;;;0.73;;
71475;SDS011;59286;59.274;17.974;2023-05-07T08:15:29;1.88;;;0.70;;
71475;SDS011;59286;59.274;17.974;2023-05-07T08:17:55;2.55;;;0.80;;
71475;SDS011;59286;59.274;17.974;2023-05-07T08:20:22;1.50;;;0.93;;
71475;SDS011;59286;59.274;17.974;2023-05-07T08:22:47;3.47;;;0.90;;
71475;SDS011;59286;59.274;17.974;2023-05-07T08:25:13;1.90;;;0.65;;
71475;SDS011;59286;59.274;17.974;2023-05-07T08:27:38;1.77;;;0.55;;
71475;SDS011;59286;59.274;17.974;2023-05-07T08:30:04;3.42;;;0.80;;
71475;SDS011;59286;59.274;17.974;2023-05-07T08:32:29;0.70;;;0.60;;
71475;SDS011;59286;59.274;17.974;2023-05-07T08:34:55;2.85;;;0.65;;
71475;SDS011;59286;59.274;17.974;2023-05-07T08:37:20;1.85;;;0.70;;
71475;SDS011;59286;59.274;17.974;2023-05-07T08:39:45;1.67;;;0.80;;
71475;SDS011;59286;59.274;17.974;2023-05-07T08:42:11;2.22;;;0.70;;
71475;SDS011;59286;59.274;17.974;2023-05-07T08:44:39;1.00;;;0.60;;
71475;SDS011;59286;59.274;17.974;2023-05-07T08:47:06;2.95;;;0.63;;
71475;SDS011;59286;59.274;17.974;2023-05-07T08:49:32;1.95;;;0.80;;
71475;SDS011;59286;59.274;17.974;2023-05-07T08:51:59;1.73;;;0.70;;
71475;SDS011;59286;59.274;17.974;2023-05-07T08:54:24;0.70;;;0.60;;
71475;SDS011;59286;59.274;17.974;2023-05-07T08:56:51;2.55;;;0.90;;
71475;SDS011;59286;59.274;17.974;2023-05-07T08:59:16;3.80;;;0.98;;
71475;SDS011;59286;59.274;17.974;2023-05-07T09:01:41;2.00;;;0.88;;
71475;SDS011;59286;59.274;17.974;2023-05-07T09:04:07;1.42;;;0.68;;
71475;SDS011;59286;59.274;17.974;2023-05-07T09:06:34;2.17;;;0.70;;
71475;SDS011;59286;59.274;17.974;2023-05-07T09:09:00;2.00;;;0.77;;
71475;SDS011;59286;59.274;17.974;2023-05-07T09:11:26;1.90;;;0.70;;
71475;SDS011;59286;59.274;17.974;2023-05-07T09:13:55;2.15;;;0.80;;
71475;SDS011;59286;59.274;17.974;2023-05-07T09:16:23;1.73;;;0.80;;
71475;SDS011;59286;59.274;17.974;2023-05-07T09:18:50;2.75;;;0.93;;
71475;SDS011;59286;59.274;17.974;2023-05-07T09:21:17;2.42;;;0.70;;
71475;SDS011;59286;59.274;17.974;2023-05-07T09:23:44;1.98;;;0.85;;
71475;SDS011;59286;59.274;17.974;2023-05-07T09:26:09;2.67;;;0.80;;
71475;SDS011;59286;59.274;17.974;2023-05-07T09:28:43;2.05;;;0.80;;
71475;SDS011;59286;59.274;17.974;2023-05-07T09:31:09;2.10;;;0.70;;
71475;SDS011;59286;59.274;17.974;2023-05-07T09:33:35;2.80;;;0.68;;
71475;SDS011;59286;59.274;17.974;2023-05-07T09:36:08;2.85;;;0.90;;
71475;SDS011;59286;59.274;17.974;2023-05-07T09:38:35;2.25;;;0.90;;
71475;SDS011;59286;59.274;17.974;2023-05-07T09:41:05;2.53;;;0.77;;
71475;SDS011;59286;59.274;17.974;2023-05-07T09:43:34;1.65;;;0.60;;
71475;SDS011;59286;59.274;17.974;2023-05-07T09:46:07;5.78;;;1.00;;
71475;SDS011;59286;59.274;17.974;2023-05-07T09:48:37;2.67;;;0.80;;
71475;SDS011;59286;59.274;17.974;2023-05-07T09:51:06;1.42;;;0.75;;
71475;SDS011;59286;59.274;17.974;2023-05-07T09:53:40;2.55;;;0.98;;
71475;SDS011;59286;59.274;17.974;2023-05-07T09:56:07;2.70;;;0.77;;
71475;SDS011;59286;59.274;17.974;2023-05-07T09:58:32;2.25;;;0.80;;
71475;SDS011;59286;59.274;17.974;2023-05-07T10:01:02;1.02;;;0.63;;
71475;SDS011;59286;59.274;17.974;2023-05-07T10:03:28;2.70;;;0.80;;
71475;SDS011;59286;59.274;17.974;2023-05-07T10:05:57;2.92;;;0.80;;
71475;SDS011;59286;59.274;17.974;2023-05-07T10:08:23;2.72;;;0.63;;
71475;SDS011;59286;59.274;17.974;2023-05-07T10:10:50;1.15;;;0.80;;
71475;SDS011;59286;59.274;17.974;2023-05-07T10:13:16;2.25;;;0.80;;
71475;SDS011;59286;59.274;17.974;2023-05-07T10:15:43;1.23;;;0.68;;
71475;SDS011;59286;59.274;17.974;2023-05-07T10:18:09;1.05;;;0.80;;
71475;SDS011;59286;59.274;17.974;2023-05-07T10:20:37;1.77;;;0.80;;
71475;SDS011;59286;59.274;17.974;2023-05-07T10:23:04;3.60;;;0.70;;
71475;SDS011;59286;59.274;17.974;2023-05-07T10:25:30;3.75;;;0.80;;
71475;SDS011;59286;59.274;17.974;2023-05-07T10:27:59;2.50;;;1.02;;
71475;SDS011;59286;59.274;17.974;2023-05-07T10:33:26;2.67;;;1.25;;
71475;SDS011;59286;59.274;17.974;2023-05-07T10:36:00;1.52;;;0.90;;
71475;SDS011;59286;59.274;17.974;2023-05-07T10:38:29;2.15;;;0.90;;
71475;SDS011;59286;59.274;17.974;2023-05-07T10:40:55;3.42;;;0.90;;
71475;SDS011;59286;59.274;17.974;2023-05-07T10:43:20;4.55;;;1.10;;
71475;SDS011;59286;59.274;17.974;2023-05-07T10:48:34;6.43;;;0.80;;
71475;SDS011;59286;59.274;17.974;2023-05-07T10:51:31;2.58;;;0.98;;
71475;SDS011;59286;59.274;17.974;2023-05-07T10:56:35;1.13;;;0.70;;
71475;SDS011;59286;59.274;17.974;2023-05-07T11:01:53;2.20;;;0.73;;
71475;SDS011;59286;59.274;17.974;2023-05-07T11:04:20;3.60;;;0.80;;
71475;SDS011;59286;59.274;17.974;2023-05-07T11:07:09;3.03;;;0.85;;
71475;SDS011;59286;59.274;17.974;2023-05-07T11:15:03;6.05;;;0.90;;
71475;SDS011;59286;59.274;17.974;2023-05-07T11:17:32;7.32;;;1.02;;
71475;SDS011;59286;59.274;17.974;2023-05-07T11:19:59;2.67;;;1.02;;
71475;SDS011;59286;59.274;17.974;2023-05-07T11:25:04;3.70;;;0.80;;
71475;SDS011;59286;59.274;17.974;2023-05-07T11:27:31;1.50;;;0.80;;
71475;SDS011;59286;59.274;17.974;2023-05-07T11:29:57;1.50;;;0.88;;
71475;SDS011;59286;59.274;17.974;2023-05-07T11:32:26;3.53;;;1.00;;
71475;SDS011;59286;59.274;17.974;2023-05-07T11:34:56;5.75;;;1.15;;
71475;SDS011;59286;59.274;17.974;2023-05-07T11:37:23;4.55;;;0.90;;
71475;SDS011;59286;59.274;17.974;2023-05-07T11:39:50;3.15;;;0.95;;
71475;SDS011;59286;59.274;17.974;2023-05-07T11:42:31;1.60;;;0.75;;
71475;SDS011;59286;59.274;17.974;2023-05-07T11:44:58;1.42;;;0.77;;
71475;SDS011;59286;59.274;17.974;2023-05-07T11:47:24;3.45;;;1.02;;
71475;SDS011;59286;59.274;17.974;2023-05-07T11:49:51;3.92;;;1.10;;
71475;SDS011;59286;59.274;17.974;2023-05-07T11:52:19;2.88;;;0.77;;
71475;SDS011;59286;59.274;17.974;2023-05-07T11:54:53;4.20;;;1.08;;
71475;SDS011;59286;59.274;17.974;2023-05-07T11:57:23;7.00;;;1.25;;
71475;SDS011;59286;59.274;17.974;2023-05-07T11:59:56;1.90;;;0.80;;
71475;SDS011;59286;59.274;17.974;2023-05-07T12:02:22;2.65;;;0.80;;
71475;SDS011;59286;59.274;17.974;2023-05-07T12:04:49;2.83;;;0.90;;
71475;SDS011;59286;59.274;17.974;2023-05-07T12:07:15;3.05;;;0.80;;
71475;SDS011;59286;59.274;17.974;2023-05-07T12:09:41;4.55;;;0.90;;
71475;SDS011;59286;59.274;17.974;2023-05-07T12:12:06;2.95;;;1.10;;
71475;SDS011;59286;59.274;17.974;2023-05-07T12:14:32;4.80;;;0.95;;
71475;SDS011;59286;59.274;17.974;2023-05-07T12:16:58;2.75;;;0.80;;
71475;SDS011;59286;59.274;17.974;2023-05-07T12:19:28;1.25;;;0.70;;
71475;SDS011;59286;59.274;17.974;2023-05-07T12:21:54;2.90;;;0.80;;
71475;SDS011;59286;59.274;17.974;2023-05-07T12:24:21;2.20;;;0.90;;
71475;SDS011;59286;59.274;17.974;2023-05-07T12:26:46;3.03;;;1.05;;
71475;SDS011;59286;59.274;17.974;2023-05-07T12:29:12;2.70;;;0.88;;
71475;SDS011;59286;59.274;17.974;2023-05-07T12:31:40;5.50;;;0.73;;
71475;SDS011;59286;59.274;17.974;2023-05-07T12:34:10;0.70;;;0.65;;
71475;SDS011;59286;59.274;17.974;2023-05-07T12:36:37;3.42;;;0.82;;
71475;SDS011;59286;59.274;17.974;2023-05-07T12:39:05;2.30;;;0.80;;
71475;SDS011;59286;59.274;17.974;2023-05-07T12:41:35;3.85;;;0.80;;
71475;SDS011;59286;59.274;17.974;2023-05-07T12:44:16;4.32;;;1.13;;
71475;SDS011;59286;59.274;17.974;2023-05-07T12:46:42;3.67;;;0.70;;
71475;SDS011;59286;59.274;17.974;2023-05-07T12:49:07;2.15;;;1.02;;
71475;SDS011;59286;59.274;17.974;2023-05-07T12:51:34;3.28;;;1.00;;
71475;SDS011;59286;59.274;17.974;2023-05-07T12:54:00;3.35;;;1.00;;
71475;SDS011;59286;59.274;17.974;2023-05-07T12:56:25;1.58;;;0.77;;
71475;SDS011;59286;59.274;17.974;2023-05-07T12:58:51;2.13;;;0.90;;
71475;SDS011;59286;59.274;17.974;2023-05-07T13:01:16;1.25;;;0.90;;
71475;SDS011;59286;59.274;17.974;2023-05-07T13:03:47;4.05;;;1.00;;
71475;SDS011;59286;59.274;17.974;2023-05-07T13:06:13;1.63;;;0.60;;
71475;SDS011;59286;59.274;17.974;2023-05-07T13:08:40;3.45;;;1.10;;
71475;SDS011;59286;59.274;17.974;2023-05-07T13:11:08;5.05;;;1.00;;
71475;SDS011;59286;59.274;17.974;2023-05-07T13:13:35;5.65;;;2.90;;
71475;SDS011;59286;59.274;17.974;2023-05-07T13:16:02;2.60;;;2.10;;
71475;SDS011;59286;59.274;17.974;2023-05-07T13:18:29;3.35;;;1.10;;
71475;SDS011;59286;59.274;17.974;2023-05-07T13:20:55;2.03;;;0.95;;
71475;SDS011;59286;59.274;17.974;2023-05-07T13:23:21;4.95;;;1.30;;
71475;SDS011;59286;59.274;17.974;2023-05-07T13:25:47;2.47;;;0.93;;
71475;SDS011;59286;59.274;17.974;2023-05-07T13:28:13;3.83;;;0.90;;
71475;SDS011;59286;59.274;17.974;2023-05-07T13:30:39;3.67;;;0.88;;
71475;SDS011;59286;59.274;17.974;2023-05-07T13:33:05;4.43;;;1.00;;
71475;SDS011;59286;59.274;17.974;2023-05-07T13:35:31;1.83;;;0.77;;
71475;SDS011;59286;59.274;17.974;2023-05-07T13:37:57;2.05;;;0.88;;
71475;SDS011;59286;59.274;17.974;2023-05-07T13:40:22;2.03;;;0.90;;
71475;SDS011;59286;59.274;17.974;2023-05-07T13:42:48;1.73;;;0.88;;
71475;SDS011;59286;59.274;17.974;2023-05-07T13:45:14;10.48;;;0.88;;
71475;SDS011;59286;59.274;17.974;2023-05-07T13:47:40;1.70;;;0.75;;
71475;SDS011;59286;59.274;17.974;2023-05-07T13:50:07;3.33;;;0.80;;
71475;SDS011;59286;59.274;17.974;2023-05-07T13:52:33;1.42;;;0.70;;
71475;SDS011;59286;59.274;17.974;2023-05-07T13:54:59;1.45;;;0.65;;
71475;SDS011;59286;59.274;17.974;2023-05-07T13:57:24;4.80;;;1.00;;
71475;SDS011;59286;59.274;17.974;2023-05-07T13:59:50;2.75;;;1.10;;
71475;SDS011;59286;59.274;17.974;2023-05-07T14:02:15;4.85;;;1.00;;
71475;SDS011;59286;59.274;17.974;2023-05-07T14:04:43;1.83;;;0.77;;
71475;SDS011;59286;59.274;17.974;2023-05-07T14:07:09;4.90;;;0.95;;
71475;SDS011;59286;59.274;17.974;2023-05-07T14:09:35;3.35;;;1.30;;
71475;SDS011;59286;59.274;17.974;2023-05-07T14:12:00;3.88;;;1.15;;
71475;SDS011;59286;59.274;17.974;2023-05-07T14:14:26;3.75;;;1.48;;
71475;SDS011;59286;59.274;17.974;2023-05-07T14:16:52;6.80;;;1.30;;
71475;SDS011;59286;59.274;17.974;2023-05-07T14:19:17;4.22;;;0.80;;
71475;SDS011;59286;59.274;17.974;2023-05-07T14:21:43;1.38;;;1.10;;
71475;SDS011;59286;59.274;17.974;2023-05-07T14:24:08;4.47;;;1.40;;
71475;SDS011;59286;59.274;17.974;2023-05-07T14:26:34;4.47;;;0.90;;
71475;SDS011;59286;59.274;17.974;2023-05-07T14:29:00;1.90;;;1.00;;
71475;SDS011;59286;59.274;17.974;2023-05-07T14:31:25;2.80;;;1.20;;
71475;SDS011;59286;59.274;17.974;2023-05-07T14:33:51;4.43;;;1.90;;
71475;SDS011;59286;59.274;17.974;2023-05-07T14:36:17;3.05;;;1.13;;
71475;SDS011;59286;59.274;17.974;2023-05-07T14:38:45;3.10;;;1.23;;
71475;SDS011;59286;59.274;17.974;2023-05-07T14:41:11;3.55;;;1.02;;
71475;SDS011;59286;59.274;17.974;2023-05-07T14:43:37;4.43;;;1.40;;
71475;SDS011;59286;59.274;17.974;2023-05-07T14:46:02;6.47;;;1.15;;
71475;SDS011;59286;59.274;17.974;2023-05-07T14:48:28;2.15;;;0.95;;